createdAt,value
2023-02-23T00:03:15.651Z,100322.78
2023-02-23T00:07:20.982Z,100320.44
2023-02-23T00:11:24.691Z,100326.31
2023-02-23T00:15:29.968Z,100329.22
2023-02-23T00:19:37.864Z,100325.47
2023-02-23T00:23:41.205Z,100321.72
2023-02-23T00:27:44.546Z,100312.03
2023-02-23T00:31:50.762Z,100313.28
2023-02-23T00:35:55.612Z,100312.41
2023-02-23T00:39:58.680Z,100308.66
2023-02-23T00:44:04.535Z,100314.50
2023-02-23T00:48:10.905Z,100315.16
2023-02-23T00:52:15.573Z,100311.19
2023-02-23T00:56:18.721Z,100314.97
2023-02-23T01:00:21.908Z,100315.78
2023-02-23T01:04:26.354Z,100318.72
2023-02-23T01:08:31.196Z,100309.50
2023-02-23T01:12:34.926Z,100325.06
2023-02-23T01:16:39.623Z,100312.03
2023-02-23T01:20:46.020Z,100318.72
2023-02-23T01:24:49.053Z,100319.78
2023-02-23T01:28:53.194Z,100322.31
2023-02-23T01:32:56.369Z,100317.06
2023-02-23T01:37:00.761Z,100315.78
2023-02-23T01:41:04.954Z,100315.38
2023-02-23T01:45:25.100Z,100318.28
2023-02-23T01:49:31.847Z,100316.59
2023-02-23T01:53:41.994Z,100320.78
2023-02-23T01:57:45.068Z,100315.75
2023-02-23T02:01:48.366Z,100321.19
2023-02-23T02:05:52.838Z,100314.06
2023-02-23T02:10:34.177Z,100314.06
2023-02-23T02:14:38.656Z,100310.69
2023-02-23T02:19:01.163Z,100314.91
2023-02-23T02:23:37.122Z,100310.69
2023-02-23T02:28:18.104Z,100314.88
2023-02-23T02:33:04.931Z,100313.19
2023-02-23T02:37:29.006Z,100314.47
2023-02-23T02:41:42.393Z,100315.69
2023-02-23T02:45:52.200Z,100317.94
2023-02-23T02:50:06.812Z,100303.72
2023-02-23T02:54:21.106Z,100298.91
2023-02-23T02:58:25.677Z,100305.63
2023-02-23T03:02:47.047Z,100303.97
2023-02-23T03:07:15.653Z,100296.81
2023-02-23T03:11:38.105Z,100307.31
2023-02-23T03:16:09.734Z,100301.88
2023-02-23T03:20:39.485Z,100310.47
2023-02-23T03:25:06.525Z,100311.50
2023-02-23T03:29:35.218Z,100307.28
2023-02-23T03:34:05.220Z,100318.63
2023-02-23T03:38:30.722Z,100317.19
2023-02-23T03:42:55.980Z,100316.53
2023-02-23T03:47:21.489Z,100322.00
2023-02-23T03:51:45.176Z,100320.72
2023-02-23T03:56:13.016Z,100326.41
2023-02-23T04:00:39.282Z,100323.69
2023-02-23T04:05:03.879Z,100331.22
2023-02-23T04:09:26.401Z,100327.03
2023-02-23T04:13:30.827Z,100329.56
2023-02-23T04:17:34.723Z,100330.81
2023-02-23T04:21:39.628Z,100331.47
2023-02-23T04:25:42.723Z,100333.31
2023-02-23T04:29:46.138Z,100336.28
2023-02-23T04:33:49.494Z,100334.13
2023-02-23T04:37:53.873Z,100331.22
2023-02-23T04:41:56.874Z,100338.78
2023-02-23T04:45:59.961Z,100336.69
2023-02-23T04:50:03.900Z,100340.22
2023-02-23T04:54:08.332Z,100340.22
2023-02-23T04:58:13.782Z,100344.22
2023-02-23T05:02:16.845Z,100351.75
2023-02-23T05:06:21.064Z,100346.72
2023-02-23T05:10:25.792Z,100351.53
2023-02-23T05:14:29.019Z,100350.03
2023-02-23T05:18:32.097Z,100352.13
2023-02-23T05:22:35.222Z,100356.34
2023-02-23T05:26:40.029Z,100356.34
2023-02-23T05:30:43.720Z,100361.38
2023-02-23T05:34:46.827Z,100363.06
2023-02-23T05:38:50.198Z,100359.06
2023-02-23T05:42:59.959Z,100370.22
2023-02-23T05:47:03.316Z,100376.06
2023-02-23T05:51:08.435Z,100364.13
2023-02-23T05:55:13.867Z,100365.16
2023-02-23T05:59:18.436Z,100364.13
2023-02-23T06:03:22.703Z,100371.78
2023-02-23T06:07:26.075Z,100373.50
2023-02-23T06:11:29.099Z,100377.25
2023-02-23T06:15:33.495Z,100386.00
2023-02-23T06:19:36.511Z,100379.31
2023-02-23T06:23:39.550Z,100387.91
2023-02-23T06:27:44.057Z,100388.16
2023-02-23T06:31:48.545Z,100395.59
2023-02-23T06:35:51.674Z,100386.84
2023-02-23T06:39:54.914Z,100393.53
2023-02-23T06:43:58.009Z,100399.44
2023-02-23T06:48:02.433Z,100409.50
2023-02-23T06:52:05.844Z,100422.94
2023-02-23T06:56:11.024Z,100423.34
2023-02-23T07:00:17.877Z,100426.06
2023-02-23T07:04:22.448Z,100425.41
2023-02-23T07:08:25.569Z,100428.78
2023-02-23T07:12:28.778Z,100435.41
2023-02-23T07:16:32.303Z,100441.41
2023-02-23T07:20:36.811Z,100451.25
2023-02-23T07:24:39.982Z,100443.97
2023-02-23T07:28:43.705Z,100449.22
2023-02-23T07:32:46.970Z,100452.75
2023-02-23T07:36:51.656Z,100453.78
2023-02-23T07:40:55.099Z,100456.13
2023-02-23T07:44:58.247Z,100463.25
2023-02-23T07:49:01.378Z,100457.16
2023-02-23T07:53:06.472Z,100461.03
2023-02-23T07:57:10.263Z,100468.25
2023-02-23T08:01:15.474Z,100473.88
2023-02-23T08:05:18.721Z,100477.66
2023-02-23T08:09:23.345Z,100478.53
2023-02-23T08:13:27.919Z,100486.22
2023-02-23T08:17:30.985Z,100491.91
2023-02-23T08:21:34.578Z,100496.56
2023-02-23T08:25:39.124Z,100498.53
2023-02-23T08:29:44.169Z,100494.84
2023-02-23T08:33:47.945Z,100504.84
2023-02-23T08:37:51.099Z,100507.44
2023-02-23T08:41:55.756Z,100507.09
2023-02-23T08:45:59.611Z,100509.66
2023-02-23T08:50:03.185Z,100509.88
2023-02-23T08:54:12.756Z,100512.00
2023-02-23T08:58:17.272Z,100519.16
2023-02-23T09:02:21.224Z,100508.09
2023-02-23T09:06:26.496Z,100523.94
2023-02-23T09:10:30.055Z,100524.66
2023-02-23T09:14:36.757Z,100534.28
2023-02-23T09:18:40.555Z,100529.81
2023-02-23T09:22:45.629Z,100536.88
2023-02-23T09:26:53.763Z,100544.47
2023-02-23T09:30:58.820Z,100538.88
2023-02-23T09:35:02.039Z,100538.69
2023-02-23T09:39:05.342Z,100546.38
2023-02-23T09:43:15.446Z,100551.44
2023-02-23T09:47:32.732Z,100552.41
2023-02-23T09:51:41.689Z,100556.09
2023-02-23T09:55:45.868Z,100569.78
2023-02-23T09:59:49.018Z,100572.63
2023-02-23T10:03:59.316Z,100576.91
2023-02-23T10:08:08.389Z,100580.91
2023-02-23T10:12:15.413Z,100578.59
2023-02-23T10:16:23.530Z,100579.22
2023-02-23T10:20:37.309Z,100577.03
2023-02-23T10:24:44.344Z,100590.00
2023-02-23T10:28:47.948Z,100589.69
2023-02-23T10:32:58.669Z,100602.16
2023-02-23T10:37:06.161Z,100594.84
2023-02-23T10:41:12.144Z,100592.75
2023-02-23T10:45:23.145Z,100583.38
2023-02-23T10:49:31.749Z,100580.53
2023-02-23T10:53:39.174Z,100583.94
2023-02-23T10:57:42.862Z,100582.31
2023-02-23T11:02:00.911Z,100582.34
2023-02-23T11:06:05.446Z,100576.50
2023-02-23T11:10:32.325Z,100574.44
2023-02-23T11:14:35.688Z,100574.00
2023-02-23T11:18:40.887Z,100568.44
2023-02-23T11:22:44.518Z,100577.94
2023-02-23T11:26:51.996Z,100581.63
2023-02-23T11:30:55.138Z,100581.22
2023-02-23T11:35:28.448Z,100573.59
2023-02-23T11:39:31.986Z,100574.00
2023-02-23T11:43:36.937Z,100568.53
2023-02-23T11:47:42.925Z,100569.09
2023-02-23T11:51:52.425Z,100555.66
2023-02-23T11:55:59.357Z,100538.91
2023-02-23T12:00:12.582Z,100523.56
2023-02-23T12:04:30.605Z,100528.91
2023-02-23T12:08:41.301Z,100517.16
2023-02-23T12:12:54.859Z,100513.75
2023-02-23T12:17:05.328Z,100517.97
2023-02-23T12:21:19.187Z,100514.09
2023-02-23T12:25:28.342Z,100521.75
2023-02-23T12:29:38.356Z,100515.28
2023-02-23T12:33:45.424Z,100510.44
2023-02-23T12:37:52.644Z,100518.50
2023-02-23T12:42:03.344Z,100495.13
2023-02-23T12:46:13.243Z,100496.97
2023-02-23T12:50:26.087Z,100481.84
2023-02-23T12:54:30.519Z,100471.69
2023-02-23T12:58:45.474Z,100467.00
2023-02-23T13:02:53.947Z,100462.91
2023-02-23T13:07:07.568Z,100479.78
2023-02-23T13:11:24.287Z,100495.53
2023-02-23T13:15:39.689Z,100493.19
2023-02-23T13:19:51.407Z,100497.41
2023-02-23T13:24:03.456Z,100506.22
2023-02-23T13:28:14.129Z,100498.44
2023-02-23T13:32:19.923Z,100501.66
2023-02-23T13:36:24.600Z,100498.94
2023-02-23T13:40:37.441Z,100509.38
2023-02-23T13:44:48.138Z,100500.75
2023-02-23T13:49:01.741Z,100506.41
2023-02-23T13:53:08.469Z,100510.59
2023-02-23T13:57:17.452Z,100510.41
2023-02-23T14:01:23.822Z,100501.16
2023-02-23T14:05:30.090Z,100511.66
2023-02-23T14:09:39.026Z,100489.38
2023-02-23T14:13:59.732Z,100508.09
2023-02-23T14:18:05.485Z,100488.97
2023-02-23T14:22:14.376Z,100476.00
2023-02-23T14:26:56.074Z,100474.50
2023-02-23T14:31:17.687Z,100479.38
2023-02-23T14:35:42.765Z,100486.44
2023-02-23T14:39:47.173Z,100501.59
2023-02-23T14:43:55.009Z,100505.38
2023-02-23T14:48:04.281Z,100514.16
2023-02-23T14:52:09.973Z,100518.34
2023-02-23T14:56:32.601Z,100536.59
2023-02-23T15:00:43.961Z,100547.25
2023-02-23T15:04:48.511Z,100543.00
2023-02-23T15:08:51.790Z,100550.78
2023-02-23T15:12:55.449Z,100548.47
2023-02-23T15:16:58.617Z,100548.06
2023-02-23T15:21:07.664Z,100552.25
2023-02-23T15:25:18.001Z,100550.97
2023-02-23T15:29:23.195Z,100551.19
2023-02-23T15:33:30.362Z,100562.69
2023-02-23T15:37:41.108Z,100550.09
2023-02-23T15:41:49.590Z,100550.94
2023-02-23T15:45:55.858Z,100549.03
2023-02-23T15:50:10.202Z,100553.94
2023-02-23T15:54:22.052Z,100549.50
2023-02-23T15:58:30.297Z,100555.94
2023-02-23T16:02:33.848Z,100557.88
2023-02-23T16:06:39.848Z,100554.50
2023-02-23T16:10:48.270Z,100565.56
2023-02-23T16:14:56.133Z,100559.72
2023-02-23T16:19:02.516Z,100558.00
2023-02-23T16:23:07.649Z,100562.59
2023-02-23T16:27:13.842Z,100559.22
2023-02-23T16:31:25.900Z,100559.59
2023-02-23T16:35:36.469Z,100556.66
2023-02-23T16:39:39.952Z,100556.66
2023-02-23T16:43:46.013Z,100547.19
2023-02-23T16:47:49.165Z,100540.69
2023-02-23T16:51:53.060Z,100550.97
2023-02-23T16:56:00.944Z,100559.97
2023-02-23T17:00:14.574Z,100552.38
2023-02-23T17:04:19.998Z,100566.00
2023-02-23T17:08:24.477Z,100565.34
2023-02-23T17:12:27.605Z,100558.84
2023-02-23T17:16:32.089Z,100570.38
2023-02-23T17:20:35.345Z,100571.03
2023-02-23T17:24:38.688Z,100570.78
2023-02-23T17:28:41.837Z,100576.63
2023-02-23T17:32:46.468Z,100583.38
2023-02-23T17:36:49.559Z,100579.09
2023-02-23T17:40:53.099Z,100578.31
2023-02-23T17:44:56.311Z,100590.41
2023-02-23T17:49:00.919Z,100586.56
2023-02-23T17:53:04.195Z,100592.88
2023-02-23T17:57:07.389Z,100596.03
2023-02-23T18:01:11.063Z,100607.16
2023-02-23T18:05:16.424Z,100603.44
2023-02-23T18:09:19.561Z,100596.53
2023-02-23T18:13:22.908Z,100608.94
2023-02-23T18:17:26.144Z,100604.53
2023-02-23T18:21:31.106Z,100613.81
2023-02-23T18:25:35.401Z,100616.13
2023-02-23T18:29:38.685Z,100611.03
2023-02-23T18:33:41.883Z,100620.38
2023-02-23T18:37:46.511Z,100617.25
2023-02-23T18:41:51.039Z,100622.44
2023-02-23T18:45:56.040Z,100621.16
2023-02-23T18:50:01.707Z,100623.69
2023-02-23T18:54:11.455Z,100625.44
2023-02-23T18:58:14.582Z,100623.69
2023-02-23T19:02:18.881Z,100618.16
2023-02-23T19:06:23.514Z,100615.56
2023-02-23T19:10:28.753Z,100617.25
2023-02-23T19:14:48.389Z,100626.06
2023-02-23T19:18:52.498Z,100625.63
2023-02-23T19:22:55.767Z,100624.34
2023-02-23T19:27:00.860Z,100626.13
2023-02-23T19:31:05.920Z,100624.63
2023-02-23T19:35:14.765Z,100620.56
2023-02-23T19:39:18.701Z,100613.94
2023-02-23T19:43:23.328Z,100608.66
2023-02-23T19:47:26.533Z,100603.22
2023-02-23T19:51:29.973Z,100605.78
2023-02-23T19:55:33.172Z,100606.09
2023-02-23T19:59:38.042Z,100605.00
2023-02-23T20:03:43.476Z,100604.25
2023-02-23T20:07:48.631Z,100615.34
2023-02-23T20:11:51.838Z,100613.69
2023-02-23T20:16:03.144Z,100634.44
2023-02-23T20:20:07.213Z,100636.88
2023-02-23T20:24:10.930Z,100641.19
2023-02-23T20:28:14.398Z,100645.22
2023-02-23T20:32:19.289Z,100646.91
2023-02-23T20:36:23.965Z,100641.47
2023-02-23T20:40:27.652Z,100646.09
2023-02-23T20:44:32.991Z,100644.56
2023-02-23T20:48:37.504Z,100637.06
2023-02-23T20:52:42.161Z,100640.16
2023-02-23T20:56:45.752Z,100635.38
2023-02-23T21:00:49.087Z,100638.09
2023-02-23T21:04:53.568Z,100642.34
2023-02-23T21:09:02.784Z,100640.16
2023-02-23T21:13:07.733Z,100641.47
2023-02-23T21:17:11.275Z,100636.97
2023-02-23T21:21:16.892Z,100641.59
2023-02-23T21:25:21.692Z,100635.94
2023-02-23T21:29:28.133Z,100635.75
2023-02-23T21:33:31.221Z,100643.81
2023-02-23T21:37:36.012Z,100644.75
2023-02-23T21:41:39.351Z,100641.00
2023-02-23T21:45:46.717Z,100640.91
2023-02-23T21:49:50.190Z,100630.41
2023-02-23T21:53:58.086Z,100639.59
2023-02-23T21:58:01.316Z,100640.50
2023-02-23T22:02:05.138Z,100636.22
2023-02-23T22:06:08.552Z,100641.09
2023-02-23T22:10:13.174Z,100633.28
2023-02-23T22:14:18.407Z,100637.34
2023-02-23T22:18:23.841Z,100636.19
2023-02-23T22:22:28.838Z,100634.69
2023-02-23T22:26:34.615Z,100639.91
2023-02-23T22:30:38.062Z,100639.97
2023-02-23T22:34:41.810Z,100636.88
2023-02-23T22:38:46.304Z,100650.06
2023-02-23T22:42:51.653Z,100649.00
2023-02-23T22:46:54.878Z,100640.31
2023-02-23T22:50:59.014Z,100645.25
2023-02-23T22:55:03.326Z,100639.66
2023-02-23T22:59:08.739Z,100634.28
2023-02-23T23:03:12.754Z,100638.84
2023-02-23T23:07:16.134Z,100625.81
2023-02-23T23:11:23.015Z,100628.31
2023-02-23T23:15:27.645Z,100621.81
2023-02-23T23:19:33.071Z,100617.22
2023-02-23T23:23:36.776Z,100613.00
2023-02-23T23:27:43.977Z,100606.91
2023-02-23T23:31:48.702Z,100602.13
2023-02-23T23:35:52.428Z,100617.41
2023-02-23T23:40:00.316Z,100615.03
2023-02-23T23:44:05.357Z,100606.91
2023-02-23T23:48:10.057Z,100610.28
2023-02-23T23:52:17.939Z,100598.50
2023-02-23T23:56:22.292Z,100591.38
